createdAt,value
2018-05-14T00:01:34.749Z,46.08
2018-05-14T00:04:00.897Z,46.13
2018-05-14T00:06:27.030Z,46.17
2018-05-14T00:08:53.238Z,46.41
2018-05-14T00:11:19.702Z,46.50
2018-05-14T00:13:46.135Z,46.53
2018-05-14T00:16:12.363Z,46.52
2018-05-14T00:18:38.638Z,46.60
2018-05-14T00:21:04.768Z,46.67
2018-05-14T00:23:30.937Z,46.70
2018-05-14T00:25:57.109Z,46.63
2018-05-14T00:28:23.329Z,47.10
2018-05-14T00:30:49.613Z,47.08
2018-05-14T00:33:15.753Z,47.03
2018-05-14T00:35:41.884Z,46.83
2018-05-14T00:38:08.057Z,46.75
2018-05-14T00:40:34.202Z,46.66
2018-05-14T00:43:00.486Z,46.69
2018-05-14T00:45:26.894Z,46.55
2018-05-14T00:47:53.291Z,46.50
2018-05-14T00:50:19.489Z,46.46
2018-05-14T00:52:45.620Z,46.41
2018-05-14T00:55:17.274Z,46.40
2018-05-14T00:57:43.426Z,46.39
2018-05-14T01:00:09.897Z,46.26
2018-05-14T01:02:36.429Z,46.37
2018-05-14T01:05:02.608Z,46.32
2018-05-14T01:07:28.742Z,46.35
2018-05-14T01:09:54.904Z,46.30
2018-05-14T01:12:21.042Z,46.32
2018-05-14T01:14:47.219Z,46.29
2018-05-14T01:17:13.356Z,46.29
2018-05-14T01:19:39.970Z,46.25
2018-05-14T01:22:06.114Z,46.31
2018-05-14T01:24:32.281Z,46.26
2018-05-14T01:26:58.551Z,46.27
2018-05-14T01:29:24.684Z,46.23
2018-05-14T01:31:50.819Z,46.17
2018-05-14T01:34:17.106Z,46.45
2018-05-14T01:36:43.238Z,46.32
2018-05-14T01:39:09.361Z,46.49
2018-05-14T01:41:35.525Z,46.57
2018-05-14T01:44:01.695Z,46.53
2018-05-14T01:46:27.841Z,46.42
2018-05-14T01:48:54.310Z,46.35
2018-05-14T01:51:20.449Z,46.49
2018-05-14T01:53:46.595Z,46.21
2018-05-14T01:56:12.881Z,46.15
2018-05-14T01:58:39.014Z,46.11
2018-05-14T02:01:05.147Z,46.08
2018-05-14T02:03:31.319Z,45.97
2018-05-14T02:05:57.848Z,46.00
2018-05-14T02:08:23.983Z,46.03
2018-05-14T02:10:50.154Z,46.05
2018-05-14T02:13:16.327Z,46.00
2018-05-14T02:15:43.176Z,46.01
2018-05-14T02:18:09.604Z,46.04
2018-05-14T02:20:35.739Z,45.99
2018-05-14T02:23:01.894Z,46.05
2018-05-14T02:25:28.042Z,46.06
2018-05-14T02:27:54.202Z,46.05
2018-05-14T02:30:20.642Z,45.93
2018-05-14T02:32:46.853Z,45.80
2018-05-14T02:35:13.006Z,45.73
2018-05-14T02:37:39.179Z,45.72
2018-05-14T02:40:05.385Z,45.72
2018-05-14T02:42:31.537Z,45.65
2018-05-14T02:44:57.680Z,45.70
2018-05-14T02:47:23.967Z,45.85
2018-05-14T02:49:50.098Z,45.97
2018-05-14T02:52:16.235Z,46.01
2018-05-14T02:54:43.132Z,46.05
2018-05-14T02:57:09.266Z,46.08
2018-05-14T02:59:35.690Z,46.10
2018-05-14T03:02:02.121Z,46.12
2018-05-14T03:04:29.064Z,46.12
2018-05-14T03:06:55.601Z,46.37
2018-05-14T03:09:21.732Z,46.11
2018-05-14T03:11:47.942Z,46.06
2018-05-14T03:14:14.080Z,46.03
2018-05-14T03:16:40.289Z,46.03
2018-05-14T03:19:06.499Z,46.10
2018-05-14T03:21:32.973Z,46.02
2018-05-14T03:23:59.401Z,46.11
2018-05-14T03:26:27.916Z,46.33
2018-05-14T03:29:00.979Z,46.98
2018-05-14T03:31:27.258Z,47.16
2018-05-14T03:33:53.401Z,47.10
2018-05-14T03:36:19.545Z,46.91
2018-05-14T03:38:45.713Z,46.75
2018-05-14T03:41:11.858Z,46.67
2018-05-14T03:43:38.481Z,46.98
2018-05-14T03:46:04.644Z,47.06
2018-05-14T03:48:30.823Z,46.82
2018-05-14T03:50:57.353Z,46.56
2018-05-14T03:53:23.570Z,46.37
2018-05-14T03:55:49.721Z,46.11
2018-05-14T03:58:28.216Z,46.19
2018-05-14T04:01:06.457Z,46.30
2018-05-14T04:03:44.656Z,46.23
2018-05-14T04:06:23.044Z,46.21
2018-05-14T04:08:49.241Z,45.79
2018-05-14T04:11:15.389Z,45.94
2018-05-14T04:13:41.598Z,45.69
2018-05-14T04:16:07.747Z,45.84
2018-05-14T04:18:34.040Z,45.86
2018-05-14T04:21:00.216Z,45.34
2018-05-14T04:23:26.432Z,45.85
2018-05-14T04:25:52.631Z,45.83
2018-05-14T04:28:18.806Z,45.94
2018-05-14T04:30:45.017Z,45.91
2018-05-14T04:33:11.156Z,46.07
2018-05-14T04:35:37.309Z,46.04
2018-05-14T04:38:03.494Z,46.21
2018-05-14T04:40:29.643Z,46.35
2018-05-14T04:42:55.847Z,46.21
2018-05-14T04:45:22.079Z,46.37
2018-05-14T04:47:48.247Z,47.18
2018-05-14T04:50:14.411Z,47.34
2018-05-14T04:52:40.590Z,47.32
2018-05-14T04:55:06.766Z,47.68
2018-05-14T04:57:33.057Z,47.47
2018-05-14T04:59:59.214Z,47.16
2018-05-14T05:02:25.361Z,46.80
2018-05-14T05:04:51.563Z,46.59
2018-05-14T05:07:17.718Z,47.18
2018-05-14T05:09:44.011Z,47.05
2018-05-14T05:12:10.178Z,46.91
2018-05-14T05:14:36.326Z,46.93
2018-05-14T05:17:02.535Z,46.68
2018-05-14T05:19:28.689Z,46.84
2018-05-14T05:21:54.914Z,46.74
2018-05-14T05:24:21.061Z,46.84
2018-05-14T05:26:47.492Z,47.00
2018-05-14T05:29:13.637Z,47.16
2018-05-14T05:31:39.808Z,47.28
2018-05-14T05:34:06.025Z,47.31
2018-05-14T05:36:32.179Z,47.78
2018-05-14T05:38:58.324Z,47.54
2018-05-14T05:41:24.559Z,47.34
2018-05-14T05:43:50.713Z,47.66
2018-05-14T05:46:16.893Z,47.61
2018-05-14T05:48:43.110Z,47.62
2018-05-14T05:51:09.286Z,47.73
2018-05-14T05:53:35.523Z,47.71
2018-05-14T05:56:01.735Z,47.81
2018-05-14T05:58:27.915Z,47.62
2018-05-14T06:00:54.072Z,47.57
2018-05-14T06:03:20.251Z,47.63
2018-05-14T06:05:46.429Z,47.82
2018-05-14T06:08:12.633Z,47.87
2018-05-14T06:10:38.952Z,47.81
2018-05-14T06:13:05.146Z,47.55
2018-05-14T06:15:31.375Z,47.79
2018-05-14T06:17:57.534Z,47.35
2018-05-14T06:20:23.738Z,47.39
2018-05-14T06:22:50.269Z,47.19
2018-05-14T06:25:16.870Z,47.27
2018-05-14T06:27:43.140Z,47.31
2018-05-14T06:30:09.676Z,47.41
2018-05-14T06:32:35.835Z,47.29
2018-05-14T06:35:02.047Z,47.10
2018-05-14T06:37:28.194Z,46.84
2018-05-14T06:39:54.389Z,46.98
2018-05-14T06:42:20.574Z,46.98
2018-05-14T06:44:46.827Z,47.05
2018-05-14T06:47:12.971Z,47.09
2018-05-14T06:49:39.142Z,46.95
2018-05-14T06:52:05.315Z,47.04
2018-05-14T06:54:31.618Z,47.12
2018-05-14T06:56:57.770Z,47.03
2018-05-14T06:59:23.945Z,47.02
2018-05-14T07:01:50.122Z,46.92
2018-05-14T07:04:16.298Z,46.79
2018-05-14T07:06:42.490Z,46.92
2018-05-14T07:09:08.661Z,46.86
2018-05-14T07:11:35.186Z,46.87
2018-05-14T07:14:08.514Z,46.87
2018-05-14T07:16:34.973Z,46.72
2018-05-14T07:19:01.128Z,46.65
2018-05-14T07:21:27.580Z,46.93
2018-05-14T07:23:53.739Z,46.87
2018-05-14T07:26:19.880Z,46.69
2018-05-14T07:28:46.075Z,46.78
2018-05-14T07:31:12.320Z,46.71
2018-05-14T07:33:38.477Z,46.88
2018-05-14T07:36:04.805Z,47.00
2018-05-14T07:38:30.947Z,46.98
2018-05-14T07:40:57.130Z,47.23
2018-05-14T07:43:23.325Z,47.49
2018-05-14T07:45:49.470Z,47.14
2018-05-14T07:48:15.773Z,47.48
2018-05-14T07:50:41.923Z,47.29
2018-05-14T07:53:08.079Z,47.11
2018-05-14T07:55:34.264Z,46.94
2018-05-14T07:58:00.422Z,47.11
2018-05-14T08:00:26.638Z,47.15
2018-05-14T08:02:52.790Z,47.17
2018-05-14T08:05:19.137Z,47.24
2018-05-14T08:07:45.371Z,47.32
2018-05-14T08:10:11.518Z,47.02
2018-05-14T08:12:37.690Z,47.31
2018-05-14T08:15:03.871Z,47.21
2018-05-14T08:17:30.037Z,47.25
2018-05-14T08:19:56.177Z,47.28
2018-05-14T08:22:22.581Z,47.33
2018-05-14T08:24:48.731Z,47.43
2018-05-14T08:27:14.926Z,47.53
2018-05-14T08:29:41.131Z,47.26
2018-05-14T08:32:07.372Z,47.72
2018-05-14T08:34:33.602Z,47.48
2018-05-14T08:36:59.803Z,47.76
2018-05-14T08:39:26.043Z,48.10
2018-05-14T08:41:52.212Z,47.87
2018-05-14T08:44:18.454Z,47.95
2018-05-14T08:46:44.700Z,47.92
2018-05-14T08:49:10.952Z,47.59
2018-05-14T08:51:37.284Z,47.92
2018-05-14T08:54:03.564Z,48.08
2018-05-14T08:56:29.905Z,47.78
2018-05-14T08:58:56.084Z,47.52
2018-05-14T09:01:22.269Z,47.43
2018-05-14T09:03:48.463Z,47.32
2018-05-14T09:06:14.626Z,47.25
2018-05-14T09:08:40.902Z,47.21
2018-05-14T09:11:07.046Z,47.08
2018-05-14T09:13:33.240Z,47.16
2018-05-14T09:15:59.439Z,47.09
2018-05-14T09:18:25.646Z,47.05
2018-05-14T09:20:51.802Z,46.95
2018-05-14T09:23:18.008Z,46.91
2018-05-14T09:25:44.166Z,46.65
2018-05-14T09:28:10.311Z,46.61
2018-05-14T09:30:36.482Z,46.45
2018-05-14T09:33:02.626Z,46.23
2018-05-14T09:35:29.053Z,46.43
2018-05-14T09:37:55.212Z,46.28
2018-05-14T09:40:21.630Z,46.10
2018-05-14T09:42:47.829Z,45.88
2018-05-14T09:45:14.063Z,45.82
2018-05-14T09:47:40.262Z,45.73
2018-05-14T09:50:06.470Z,45.47
2018-05-14T09:52:33.103Z,45.34
2018-05-14T09:54:59.268Z,45.33
2018-05-14T09:57:25.602Z,44.92
2018-05-14T09:59:51.841Z,44.99
2018-05-14T10:02:18.075Z,44.85
2018-05-14T10:04:44.240Z,44.84
2018-05-14T10:09:43.139Z,44.93
2018-05-14T10:12:09.459Z,44.70
2018-05-14T10:14:35.782Z,44.46
2018-05-14T10:17:01.964Z,44.00
2018-05-14T10:19:28.232Z,44.32
2018-05-14T10:21:54.384Z,44.09
2018-05-14T10:24:20.570Z,44.10
2018-05-14T10:26:47.007Z,43.94
2018-05-14T10:29:13.222Z,43.51
2018-05-14T10:31:39.456Z,43.22
2018-05-14T10:34:05.605Z,43.06
2018-05-14T10:36:31.837Z,43.10
2018-05-14T10:38:57.988Z,43.28
2018-05-14T10:41:24.210Z,43.03
2018-05-14T10:43:50.389Z,42.70
2018-05-14T10:46:16.530Z,42.94
2018-05-14T10:48:42.744Z,42.79
2018-05-14T10:51:08.881Z,42.88
2018-05-14T10:53:35.026Z,42.25
2018-05-14T10:56:01.207Z,42.11
2018-05-14T10:58:27.421Z,41.51
2018-05-14T11:00:53.598Z,40.73
2018-05-14T11:03:19.740Z,40.58
2018-05-14T11:05:45.923Z,40.83
2018-05-14T11:08:12.062Z,41.23
2018-05-14T11:10:38.344Z,40.38
2018-05-14T11:13:04.422Z,40.45
2018-05-14T11:15:30.630Z,39.43
2018-05-14T11:17:56.777Z,40.32
2018-05-14T11:20:24.457Z,39.57
2018-05-14T11:22:52.503Z,39.67
2018-05-14T11:25:20.703Z,38.94
2018-05-14T11:27:46.887Z,39.69
2018-05-14T11:30:13.161Z,39.71
2018-05-14T11:32:39.299Z,39.26
2018-05-14T11:35:05.445Z,39.46
2018-05-14T11:37:31.626Z,38.67
2018-05-14T11:39:57.829Z,38.99
2018-05-14T11:42:24.135Z,38.78
2018-05-14T11:44:50.276Z,38.14
2018-05-14T11:47:16.422Z,38.97
2018-05-14T11:49:42.603Z,38.34
2018-05-14T11:52:08.740Z,38.73
2018-05-14T11:54:35.322Z,38.31
2018-05-14T11:57:01.526Z,38.00
2018-05-14T11:59:27.684Z,37.87
2018-05-14T12:01:54.309Z,38.18
2018-05-14T12:04:20.460Z,38.23
2018-05-14T12:06:46.613Z,37.83
2018-05-14T12:09:12.794Z,37.02
2018-05-14T12:11:38.963Z,38.07
2018-05-14T12:14:05.487Z,37.93
2018-05-14T12:16:31.667Z,38.22
2018-05-14T12:18:57.873Z,38.22
2018-05-14T12:21:24.094Z,38.39
2018-05-14T12:23:50.254Z,37.76
2018-05-14T12:26:16.444Z,37.32
2018-05-14T12:28:43.309Z,37.96
2018-05-14T12:31:09.467Z,37.68
2018-05-14T12:33:35.649Z,37.94
2018-05-14T12:36:01.843Z,37.71
2018-05-14T12:38:27.996Z,37.30
2018-05-14T12:40:54.211Z,36.86
2018-05-14T12:43:22.712Z,37.59
2018-05-14T12:45:49.286Z,37.66
2018-05-14T12:48:15.460Z,37.57
2018-05-14T12:50:41.622Z,37.06
2018-05-14T12:53:07.782Z,37.91
2018-05-14T12:55:33.934Z,38.30
2018-05-14T12:58:00.317Z,38.27
2018-05-14T13:00:26.604Z,38.35
2018-05-14T13:02:52.981Z,38.45
2018-05-14T13:05:19.139Z,38.63
2018-05-14T13:07:45.501Z,38.69
2018-05-14T13:10:11.621Z,38.67
2018-05-14T13:12:37.997Z,38.60
2018-05-14T13:15:04.184Z,38.75
2018-05-14T13:17:30.402Z,38.76
2018-05-14T13:19:56.718Z,38.55
2018-05-14T13:22:23.132Z,38.47
2018-05-14T13:24:49.304Z,38.53
2018-05-14T13:27:15.495Z,38.64
2018-05-14T13:29:41.689Z,38.52
2018-05-14T13:32:07.938Z,38.54
2018-05-14T13:34:34.042Z,38.47
2018-05-14T13:37:00.304Z,38.62
2018-05-14T13:39:26.465Z,38.42
2018-05-14T13:41:52.629Z,38.37
2018-05-14T13:44:19.148Z,38.43
2018-05-14T13:46:45.502Z,38.33
2018-05-14T13:49:11.886Z,38.46
2018-05-14T13:51:38.066Z,38.40
2018-05-14T13:54:04.486Z,38.44
2018-05-14T13:56:30.677Z,38.42
2018-05-14T13:58:56.836Z,38.29
2018-05-14T14:01:23.142Z,38.15
2018-05-14T14:03:49.301Z,38.14
2018-05-14T14:06:15.733Z,38.15
2018-05-14T14:08:41.909Z,38.31
2018-05-14T14:11:08.054Z,38.24
2018-05-14T14:13:34.224Z,38.31
2018-05-14T14:16:00.383Z,38.15
2018-05-14T14:18:26.943Z,38.13
2018-05-14T14:20:53.099Z,38.06
2018-05-14T14:23:19.299Z,37.93
2018-05-14T14:25:45.487Z,37.82
2018-05-14T14:28:11.665Z,37.49
2018-05-14T14:30:37.968Z,37.17
2018-05-14T14:33:04.189Z,35.33
2018-05-14T14:35:30.567Z,32.54
2018-05-14T14:37:56.977Z,30.75
2018-05-14T14:40:23.137Z,29.80
2018-05-14T14:42:49.353Z,29.16
2018-05-14T14:45:15.507Z,28.73
2018-05-14T14:47:41.791Z,28.62
2018-05-14T14:50:07.955Z,28.37
2018-05-14T14:52:34.093Z,28.16
2018-05-14T14:55:00.735Z,28.05
2018-05-14T14:57:26.881Z,28.01
2018-05-14T14:59:53.044Z,29.34
2018-05-14T15:02:19.470Z,31.43
2018-05-14T15:04:45.631Z,32.18
2018-05-14T15:07:11.794Z,33.38
2018-05-14T15:09:38.210Z,34.37
2018-05-14T15:12:04.357Z,35.53
2018-05-14T15:14:30.794Z,36.25
2018-05-14T15:16:56.943Z,36.50
2018-05-14T15:19:23.477Z,36.53
2018-05-14T15:21:49.647Z,36.51
2018-05-14T15:24:15.858Z,36.56
2018-05-14T15:26:42.018Z,36.52
2018-05-14T15:29:08.164Z,36.45
2018-05-14T15:31:34.370Z,36.65
2018-05-14T15:34:00.535Z,36.88
2018-05-14T15:36:26.710Z,37.10
2018-05-14T15:38:52.910Z,37.19
2018-05-14T15:41:19.158Z,36.86
2018-05-14T15:43:45.283Z,37.02
2018-05-14T15:46:11.460Z,37.23
2018-05-14T15:48:37.613Z,37.48
2018-05-14T15:51:03.776Z,37.70
2018-05-14T15:53:30.353Z,37.79
2018-05-14T15:55:56.520Z,37.82
2018-05-14T15:58:22.677Z,37.85
2018-05-14T16:00:48.862Z,37.85
2018-05-14T16:03:15.016Z,38.09
2018-05-14T16:05:41.230Z,38.13
2018-05-14T16:08:07.511Z,38.02
2018-05-14T16:10:33.888Z,38.10
2018-05-14T16:13:00.042Z,38.16
2018-05-14T16:15:26.625Z,38.40
2018-05-14T16:17:53.757Z,38.75
2018-05-14T16:20:22.307Z,38.89
2018-05-14T16:22:48.532Z,38.81
2018-05-14T16:25:14.739Z,38.72
2018-05-14T16:27:40.885Z,38.41
2018-05-14T16:30:07.040Z,38.45
2018-05-14T16:32:33.359Z,38.44
2018-05-14T16:34:59.605Z,38.41
2018-05-14T16:37:25.761Z,38.48
2018-05-14T16:39:51.948Z,38.38
2018-05-14T16:42:18.107Z,38.35
2018-05-14T16:44:44.276Z,38.16
2018-05-14T16:53:03.997Z,37.42
2018-05-14T16:55:30.156Z,36.97
2018-05-14T16:57:56.452Z,37.05
2018-05-14T17:00:23.018Z,37.45
2018-05-14T17:02:50.709Z,37.68
2018-05-14T17:05:17.170Z,37.47
2018-05-14T17:07:43.861Z,37.75
2018-05-14T17:10:10.015Z,37.28
2018-05-14T17:12:36.161Z,37.09
2018-05-14T17:15:02.497Z,37.04
2018-05-14T17:17:28.682Z,37.17
2018-05-14T17:19:54.908Z,36.75
2018-05-14T17:22:23.272Z,36.57
2018-05-14T17:24:49.627Z,36.56
2018-05-14T17:27:15.785Z,36.46
2018-05-14T17:29:41.916Z,36.24
2018-05-14T17:32:08.515Z,36.09
2018-05-14T17:34:34.946Z,36.27
2018-05-14T17:37:01.105Z,35.47
2018-05-14T17:39:27.304Z,35.70
2018-05-14T17:41:53.445Z,35.92
2018-05-14T17:44:19.589Z,35.55
2018-05-14T17:46:45.760Z,35.61
2018-05-14T17:49:12.449Z,35.65
2018-05-14T17:51:38.589Z,35.86
2018-05-14T17:54:04.748Z,35.95
2018-05-14T17:56:30.994Z,36.13
2018-05-14T17:58:57.169Z,35.48
2018-05-14T18:01:23.326Z,35.21
2018-05-14T18:03:49.503Z,35.47
2018-05-14T18:06:15.637Z,35.20
2018-05-14T18:08:42.040Z,35.11
2018-05-14T18:11:08.325Z,34.89
2018-05-14T18:13:34.938Z,34.94
2018-05-14T18:16:01.068Z,34.73
2018-05-14T18:18:27.234Z,35.17
2018-05-14T18:20:53.441Z,35.42
2018-05-14T18:23:22.497Z,35.59
2018-05-14T18:25:54.892Z,36.00
2018-05-14T18:28:21.078Z,36.16
2018-05-14T18:30:47.229Z,36.30
2018-05-14T18:33:13.452Z,36.37
2018-05-14T18:35:43.533Z,36.72
2018-05-14T18:38:09.709Z,36.78
2018-05-14T18:40:36.137Z,37.06
2018-05-14T18:43:02.298Z,37.29
2018-05-14T18:45:28.441Z,37.51
2018-05-14T18:47:54.646Z,37.74
2018-05-14T18:50:20.792Z,37.93
2018-05-14T18:52:46.951Z,38.16
2018-05-14T18:55:14.532Z,38.40
2018-05-14T18:57:40.674Z,38.66
2018-05-14T19:00:06.894Z,38.92
2018-05-14T19:02:33.021Z,38.98
2018-05-14T19:04:59.172Z,39.35
2018-05-14T19:07:25.339Z,39.19
2018-05-14T19:09:51.481Z,39.16
2018-05-14T19:12:17.754Z,39.57
2018-05-14T19:14:49.988Z,39.51
2018-05-14T19:17:22.410Z,39.51
2018-05-14T19:19:48.554Z,39.57
2018-05-14T19:22:20.733Z,39.59
2018-05-14T19:24:46.936Z,39.64
2018-05-14T19:27:13.074Z,39.69
2018-05-14T19:29:39.248Z,39.72
2018-05-14T19:32:05.432Z,39.69
2018-05-14T19:34:37.710Z,39.69
2018-05-14T19:37:03.851Z,39.79
2018-05-14T19:39:36.156Z,39.87
2018-05-14T19:42:03.747Z,39.87
2018-05-14T19:44:30.194Z,39.96
2018-05-14T19:46:56.367Z,40.03
2018-05-14T19:49:22.531Z,40.08
2018-05-14T19:51:48.692Z,40.21
2018-05-14T19:54:14.929Z,40.30
2018-05-14T19:56:41.149Z,40.39
2018-05-14T19:59:07.290Z,40.45
2018-05-14T20:01:33.425Z,40.49
2018-05-14T20:03:59.617Z,40.52
2018-05-14T20:06:26.181Z,40.56
2018-05-14T20:08:52.577Z,40.66
2018-05-14T20:11:18.714Z,40.67
2018-05-14T20:13:45.111Z,40.72
2018-05-14T20:16:11.263Z,40.78
2018-05-14T20:18:37.434Z,40.91
2018-05-14T20:21:03.611Z,40.95
2018-05-14T20:23:29.819Z,40.92
2018-05-14T20:25:55.989Z,40.90
2018-05-14T20:28:22.248Z,40.75
2018-05-14T20:30:48.383Z,40.69
2018-05-14T20:33:14.518Z,40.61
2018-05-14T20:35:40.802Z,40.57
2018-05-14T20:38:06.943Z,40.56
2018-05-14T20:40:33.339Z,40.49
2018-05-14T20:42:59.972Z,40.49
2018-05-14T20:45:26.132Z,40.58
2018-05-14T20:47:52.265Z,40.56
2018-05-14T20:50:18.431Z,40.56
2018-05-14T20:52:44.588Z,40.49
2018-05-14T20:55:11.014Z,40.50
2018-05-14T20:57:37.183Z,40.50
2018-05-14T21:00:03.386Z,40.47
2018-05-14T21:02:29.547Z,40.32
2018-05-14T21:04:55.677Z,40.20
2018-05-14T21:07:22.195Z,40.13
2018-05-14T21:09:48.317Z,40.14
2018-05-14T21:12:14.445Z,40.13
2018-05-14T21:14:40.640Z,40.08
2018-05-14T21:17:07.063Z,40.04
2018-05-14T21:19:33.226Z,40.00
2018-05-14T21:21:59.357Z,39.98
2018-05-14T21:24:25.558Z,40.01
2018-05-14T21:26:51.849Z,40.29
2018-05-14T21:29:18.309Z,40.69
2018-05-14T21:31:44.739Z,40.88
2018-05-14T21:34:10.989Z,41.05
2018-05-14T21:36:37.171Z,41.25
2018-05-14T21:39:03.732Z,41.25
2018-05-14T21:41:29.857Z,41.16
2018-05-14T21:43:56.013Z,41.22
2018-05-14T21:46:22.420Z,41.16
2018-05-14T21:48:48.582Z,41.29
2018-05-14T21:51:14.704Z,41.54
2018-05-14T21:53:40.964Z,41.69
2018-05-14T21:56:07.090Z,41.68
2018-05-14T21:58:33.228Z,41.74
2018-05-14T22:00:59.396Z,41.74
2018-05-14T22:03:25.526Z,42.02
2018-05-14T22:05:52.475Z,42.13
2018-05-14T22:08:18.738Z,42.33
2018-05-14T22:10:44.857Z,42.43
2018-05-14T22:13:10.982Z,42.58
2018-05-14T22:15:37.562Z,42.64
2018-05-14T22:18:03.700Z,42.71
2018-05-14T22:20:29.838Z,42.83
2018-05-14T22:22:56.658Z,42.88
2018-05-14T22:25:22.839Z,42.95
2018-05-14T22:27:48.969Z,43.03
2018-05-14T22:30:15.121Z,43.04
2018-05-14T22:32:41.272Z,43.09
2018-05-14T22:35:07.432Z,43.13
2018-05-14T22:37:33.818Z,43.16
2018-05-14T22:39:59.944Z,43.20
2018-05-14T22:42:26.215Z,43.33
2018-05-14T22:44:52.329Z,43.37
2018-05-14T22:47:18.448Z,43.35
2018-05-14T22:49:44.607Z,43.43
2018-05-14T22:52:10.738Z,43.49
2018-05-14T22:54:36.893Z,43.54
2018-05-14T22:57:03.335Z,43.69
2018-05-14T22:59:29.497Z,43.87
2018-05-14T23:01:55.645Z,44.14
2018-05-14T23:04:22.125Z,44.21
2018-05-14T23:06:48.288Z,44.12
2018-05-14T23:09:14.413Z,44.17
2018-05-14T23:11:40.550Z,44.02
2018-05-14T23:14:06.786Z,43.85
2018-05-14T23:16:32.943Z,43.81
2018-05-14T23:18:59.150Z,43.72
2018-05-14T23:21:25.621Z,43.66
2018-05-14T23:23:51.740Z,43.64
2018-05-14T23:26:18.141Z,43.57
2018-05-14T23:28:44.280Z,43.61
2018-05-14T23:31:10.412Z,43.55
2018-05-14T23:33:36.560Z,43.56
2018-05-14T23:36:02.712Z,43.55
2018-05-14T23:38:29.117Z,43.49
2018-05-14T23:40:55.296Z,43.51
2018-05-14T23:43:21.430Z,43.46
2018-05-14T23:45:47.572Z,43.56
2018-05-14T23:48:20.682Z,43.57
2018-05-14T23:50:46.813Z,43.63
2018-05-14T23:53:13.339Z,43.57
2018-05-14T23:55:39.773Z,43.66
2018-05-14T23:58:05.900Z,44.04
